createdAt,value
2022-10-22T00:01:09.917Z,71.02
2022-10-22T00:03:40.200Z,70.89
2022-10-22T00:06:08.068Z,70.95
2022-10-22T00:08:35.958Z,70.96
2022-10-22T00:11:30.141Z,70.91
2022-10-22T00:13:57.899Z,70.85
2022-10-22T00:16:25.646Z,71.42
2022-10-22T00:18:53.532Z,71.83
2022-10-22T00:21:21.261Z,72.09
2022-10-22T00:23:49.322Z,72.20
2022-10-22T00:26:17.120Z,72.13
2022-10-22T00:28:44.882Z,72.26
2022-10-22T00:31:12.866Z,71.75
2022-10-22T00:33:40.517Z,71.65
2022-10-22T00:36:08.926Z,71.60
2022-10-22T00:38:36.640Z,71.36
2022-10-22T00:41:04.583Z,71.67
2022-10-22T00:43:32.573Z,72.11
2022-10-22T00:46:00.257Z,72.36
2022-10-22T00:48:31.381Z,72.18
2022-10-22T00:51:08.255Z,72.03
2022-10-22T00:53:41.985Z,71.82
2022-10-22T00:56:10.615Z,71.82
2022-10-22T00:58:44.062Z,72.13
2022-10-22T01:01:17.115Z,71.88
2022-10-22T01:03:44.966Z,71.79
2022-10-22T01:06:18.608Z,71.95
2022-10-22T01:09:02.902Z,72.32
2022-10-22T01:11:55.700Z,72.58
2022-10-22T01:14:40.113Z,72.71
2022-10-22T01:17:31.063Z,72.53
2022-10-22T01:20:38.005Z,72.41
2022-10-22T01:23:35.883Z,72.29
2022-10-22T01:26:18.146Z,71.96
2022-10-22T01:28:57.924Z,72.78
2022-10-22T01:31:34.102Z,73.32
2022-10-22T01:34:04.422Z,73.66
2022-10-22T01:36:35.160Z,73.41
2022-10-22T01:39:05.077Z,73.05
2022-10-22T01:41:34.466Z,73.10
2022-10-22T01:44:02.327Z,73.57
2022-10-22T01:46:30.177Z,73.98
2022-10-22T01:49:27.770Z,74.03
2022-10-22T01:52:01.558Z,73.99
2022-10-22T01:54:44.706Z,73.73
2022-10-22T01:57:40.979Z,73.75
2022-10-22T02:00:13.927Z,74.04
2022-10-22T02:02:48.905Z,73.47
2022-10-22T02:05:30.550Z,73.83
2022-10-22T02:08:20.685Z,74.00
2022-10-22T02:10:50.297Z,74.22
2022-10-22T02:13:40.697Z,74.33
2022-10-22T02:16:13.025Z,73.96
2022-10-22T02:18:44.233Z,73.81
2022-10-22T02:21:12.529Z,73.86
2022-10-22T02:23:40.589Z,74.09
2022-10-22T02:26:27.996Z,75.30
2022-10-22T02:29:06.854Z,74.77
2022-10-22T02:31:39.082Z,74.58
2022-10-22T02:34:16.544Z,75.01
2022-10-22T02:36:48.228Z,74.99
2022-10-22T02:39:20.797Z,74.43
2022-10-22T02:41:48.927Z,74.25
2022-10-22T02:44:22.292Z,74.27
2022-10-22T02:46:50.826Z,74.55
2022-10-22T02:49:18.537Z,75.26
2022-10-22T02:51:46.285Z,75.45
2022-10-22T02:54:14.036Z,75.48
2022-10-22T02:56:41.778Z,75.70
2022-10-22T02:59:09.535Z,75.39
2022-10-22T03:01:37.209Z,75.19
2022-10-22T03:04:05.313Z,74.76
2022-10-22T03:06:33.093Z,74.67
2022-10-22T03:09:00.931Z,74.80
2022-10-22T03:11:28.740Z,75.12
2022-10-22T03:13:56.406Z,75.03
2022-10-22T03:16:24.135Z,74.90
2022-10-22T03:18:51.830Z,74.72
2022-10-22T03:21:32.010Z,74.69
2022-10-22T03:24:05.766Z,74.68
2022-10-22T03:26:34.356Z,74.60
2022-10-22T03:29:02.636Z,75.96
2022-10-22T03:31:30.394Z,77.05
2022-10-22T03:33:58.106Z,76.80
2022-10-22T03:36:26.019Z,76.51
2022-10-22T03:38:54.204Z,76.25
2022-10-22T03:41:22.097Z,76.34
2022-10-22T03:43:53.060Z,76.77
2022-10-22T03:46:21.195Z,76.67
2022-10-22T03:48:48.884Z,76.96
2022-10-22T03:51:16.618Z,76.80
2022-10-22T03:53:44.366Z,76.78
2022-10-22T03:56:13.107Z,76.14
2022-10-22T03:58:42.152Z,75.78
2022-10-22T04:01:12.134Z,75.75
2022-10-22T04:03:40.924Z,76.44
2022-10-22T04:06:11.512Z,76.36
2022-10-22T04:08:41.399Z,76.23
2022-10-22T04:11:10.455Z,76.31
2022-10-22T04:13:38.380Z,76.17
2022-10-22T04:16:12.310Z,75.93
2022-10-22T04:18:40.930Z,76.09
2022-10-22T04:21:10.371Z,76.48
2022-10-22T04:23:38.598Z,76.31
2022-10-22T04:26:08.019Z,75.74
2022-10-22T04:28:36.053Z,75.93
2022-10-22T04:31:11.704Z,75.70
2022-10-22T04:33:39.876Z,75.61
2022-10-22T04:36:13.536Z,75.28
2022-10-22T04:38:43.196Z,75.63
2022-10-22T04:41:11.949Z,75.97
2022-10-22T04:43:40.330Z,76.57
2022-10-22T04:46:12.078Z,76.36
2022-10-22T04:48:41.713Z,76.29
2022-10-22T04:51:11.983Z,75.89
2022-10-22T04:53:40.660Z,76.14
2022-10-22T04:56:20.818Z,75.92
2022-10-22T04:58:54.679Z,75.94
2022-10-22T05:01:36.981Z,76.38
2022-10-22T05:04:09.082Z,76.51
2022-10-22T05:06:37.000Z,76.37
2022-10-22T05:09:11.642Z,76.17
2022-10-22T05:11:46.408Z,76.06
2022-10-22T05:14:19.841Z,75.86
2022-10-22T05:16:48.868Z,75.87
2022-10-22T05:19:29.507Z,76.32
2022-10-22T05:22:00.212Z,76.48
2022-10-22T05:24:29.313Z,76.55
2022-10-22T05:26:58.297Z,76.28
2022-10-22T05:29:26.334Z,76.42
2022-10-22T05:31:54.368Z,76.95
2022-10-22T05:34:22.164Z,76.07
2022-10-22T05:36:50.069Z,76.48
2022-10-22T05:39:17.735Z,77.13
2022-10-22T05:41:45.440Z,77.48
2022-10-22T05:44:13.963Z,77.29
2022-10-22T05:46:43.511Z,76.90
2022-10-22T05:49:14.370Z,76.48
2022-10-22T05:51:42.380Z,76.24
2022-10-22T05:54:17.543Z,76.01
2022-10-22T05:56:46.187Z,75.69
2022-10-22T05:59:14.026Z,75.61
2022-10-22T06:01:42.245Z,75.78
2022-10-22T06:04:11.956Z,75.73
2022-10-22T06:06:44.318Z,75.06
2022-10-22T06:09:30.682Z,74.23
2022-10-22T06:11:58.766Z,73.64
2022-10-22T06:14:27.354Z,73.82
2022-10-22T06:16:55.671Z,74.29
2022-10-22T06:19:26.947Z,74.84
2022-10-22T06:21:54.652Z,74.67
2022-10-22T06:24:22.363Z,75.32
2022-10-22T06:26:51.635Z,75.16
2022-10-22T06:29:19.594Z,74.99
2022-10-22T06:31:47.327Z,75.12
2022-10-22T06:34:15.598Z,74.44
2022-10-22T06:36:45.166Z,73.70
2022-10-22T06:39:16.218Z,72.90
2022-10-22T06:41:44.213Z,73.16
2022-10-22T06:44:16.679Z,72.90
2022-10-22T06:46:45.056Z,72.24
2022-10-22T06:49:14.710Z,71.73
2022-10-22T06:51:42.557Z,71.90
2022-10-22T06:54:10.976Z,72.41
2022-10-22T06:56:38.658Z,72.07
2022-10-22T06:59:06.409Z,71.62
2022-10-22T07:01:35.865Z,71.59
2022-10-22T07:04:04.997Z,71.49
2022-10-22T07:06:33.180Z,71.14
2022-10-22T07:09:01.051Z,70.63
2022-10-22T07:11:32.947Z,70.81
2022-10-22T07:14:00.698Z,70.79
2022-10-22T07:16:32.067Z,70.94
2022-10-22T07:19:01.499Z,71.24
2022-10-22T07:21:30.131Z,69.81
2022-10-22T07:23:59.264Z,70.09
2022-10-22T07:26:31.148Z,69.59
2022-10-22T07:29:00.737Z,68.82
2022-10-22T07:31:28.627Z,68.96
2022-10-22T07:33:56.826Z,69.20
2022-10-22T07:36:26.908Z,69.29
2022-10-22T07:38:57.625Z,69.37
2022-10-22T07:41:26.915Z,70.28
2022-10-22T07:43:55.364Z,69.72
2022-10-22T07:46:24.668Z,69.74
2022-10-22T07:48:52.848Z,69.06
2022-10-22T07:51:20.604Z,68.92
2022-10-22T07:53:48.366Z,69.14
2022-10-22T07:56:16.285Z,68.80
2022-10-22T07:58:44.055Z,68.97
2022-10-22T08:01:11.908Z,68.25
2022-10-22T08:03:39.633Z,68.58
2022-10-22T08:06:07.651Z,68.89
2022-10-22T08:08:35.365Z,69.40
2022-10-22T08:11:03.593Z,68.69
2022-10-22T08:13:31.360Z,68.33
2022-10-22T08:16:00.421Z,68.15
2022-10-22T08:18:28.793Z,67.77
2022-10-22T08:20:56.926Z,67.92
2022-10-22T08:23:27.655Z,67.91
2022-10-22T08:25:57.801Z,67.55
2022-10-22T08:28:26.090Z,67.48
2022-10-22T08:30:53.814Z,67.19
2022-10-22T08:33:21.870Z,67.18
2022-10-22T08:35:50.992Z,67.19
2022-10-22T08:38:19.769Z,67.12
2022-10-22T08:40:53.053Z,66.93
2022-10-22T08:43:59.279Z,66.86
2022-10-22T08:46:36.245Z,66.82
2022-10-22T08:51:42.082Z,67.26
2022-10-22T08:54:25.344Z,67.16
2022-10-22T09:01:01.180Z,67.11
2022-10-22T09:03:55.101Z,67.12
2022-10-22T09:06:31.553Z,67.09
2022-10-22T09:09:00.339Z,66.80
2022-10-22T09:11:36.110Z,66.68
2022-10-22T09:14:05.305Z,66.20
2022-10-22T09:16:36.025Z,66.01
2022-10-22T09:19:33.654Z,66.02
2022-10-22T09:22:18.363Z,65.42
2022-10-22T09:24:48.827Z,65.39
2022-10-22T09:27:19.418Z,64.77
2022-10-22T09:29:48.382Z,64.77
2022-10-22T09:32:17.926Z,65.01
2022-10-22T09:34:47.869Z,65.00
2022-10-22T09:37:24.985Z,63.99
2022-10-22T09:39:53.560Z,64.35
2022-10-22T09:42:22.367Z,64.65
2022-10-22T09:44:59.629Z,62.88
2022-10-22T09:47:43.503Z,62.33
2022-10-22T09:50:27.981Z,63.26
2022-10-22T09:53:11.831Z,62.46
2022-10-22T09:55:41.962Z,62.48
2022-10-22T09:58:13.933Z,62.89
2022-10-22T10:00:45.686Z,63.04
2022-10-22T10:03:23.634Z,62.89
2022-10-22T10:06:01.395Z,62.77
2022-10-22T10:08:33.514Z,63.78
2022-10-22T10:11:10.157Z,64.22
2022-10-22T10:13:54.619Z,64.87
2022-10-22T10:16:36.840Z,65.31
2022-10-22T10:19:21.935Z,65.70
2022-10-22T10:22:04.768Z,66.31
2022-10-22T10:25:10.288Z,66.32
2022-10-22T10:27:44.799Z,66.20
2022-10-22T10:30:20.638Z,66.74
2022-10-22T10:33:24.370Z,67.23
2022-10-22T10:36:14.828Z,67.36
2022-10-22T10:38:48.735Z,67.15
2022-10-22T10:41:26.239Z,67.88
2022-10-22T10:44:21.401Z,68.41
2022-10-22T10:47:17.307Z,68.51
2022-10-22T10:49:45.998Z,68.63
2022-10-22T10:52:32.521Z,68.85
2022-10-22T10:55:36.034Z,69.00
2022-10-22T10:58:18.831Z,69.63
2022-10-22T11:01:02.990Z,69.11
2022-10-22T11:03:49.686Z,69.10
2022-10-22T11:06:24.572Z,69.64
2022-10-22T11:09:07.180Z,69.87
2022-10-22T11:11:44.272Z,70.01
2022-10-22T11:14:25.209Z,70.33
2022-10-22T11:17:03.518Z,70.11
2022-10-22T11:19:51.598Z,69.69
2022-10-22T11:22:32.085Z,70.13
2022-10-22T11:25:25.637Z,69.88
2022-10-22T11:28:11.599Z,70.13
2022-10-22T11:30:42.714Z,70.06
2022-10-22T11:33:14.953Z,70.02
2022-10-22T11:35:45.271Z,70.44
2022-10-22T11:38:20.295Z,70.82
2022-10-22T11:40:56.597Z,70.77
2022-10-22T11:43:46.130Z,70.44
2022-10-22T11:46:16.637Z,70.11
2022-10-22T11:48:44.651Z,70.60
2022-10-22T11:51:40.182Z,70.82
2022-10-22T11:54:45.561Z,71.61
2022-10-22T11:57:18.982Z,72.25
2022-10-22T11:59:46.604Z,72.21
2022-10-22T12:02:38.901Z,72.19
2022-10-22T12:05:22.222Z,71.82
2022-10-22T12:07:57.204Z,71.96
2022-10-22T12:10:29.286Z,72.11
2022-10-22T12:13:01.790Z,72.49
2022-10-22T12:15:29.574Z,72.57
2022-10-22T12:18:05.062Z,72.92
2022-10-22T12:20:32.832Z,73.10
2022-10-22T12:23:01.034Z,73.12
2022-10-22T12:25:35.900Z,73.49
2022-10-22T12:28:05.059Z,73.85
2022-10-22T12:30:37.010Z,73.90
2022-10-22T12:33:08.121Z,73.58
2022-10-22T12:35:43.941Z,73.56
2022-10-22T12:38:20.213Z,73.19
2022-10-22T12:40:51.362Z,73.32
2022-10-22T12:43:28.897Z,73.35
2022-10-22T12:45:59.186Z,73.50
2022-10-22T12:48:37.461Z,73.82
2022-10-22T12:51:08.169Z,73.72
2022-10-22T12:53:39.392Z,73.84
2022-10-22T12:56:12.241Z,74.03
2022-10-22T12:58:51.730Z,73.91
2022-10-22T13:01:19.875Z,74.15
2022-10-22T13:04:03.605Z,74.45
2022-10-22T13:06:35.266Z,75.04
2022-10-22T13:09:27.872Z,75.05
2022-10-22T13:12:06.647Z,75.39
2022-10-22T13:14:38.138Z,75.59
2022-10-22T13:17:20.316Z,75.14
2022-10-22T13:19:50.120Z,75.15
2022-10-22T13:22:38.820Z,75.20
2022-10-22T13:25:15.989Z,75.68
2022-10-22T13:27:49.622Z,76.14
2022-10-22T13:30:23.017Z,76.46
2022-10-22T13:32:53.564Z,76.67
2022-10-22T13:35:27.503Z,76.90
2022-10-22T13:37:55.336Z,76.73
2022-10-22T13:40:23.239Z,77.36
2022-10-22T13:42:51.033Z,77.16
2022-10-22T13:45:19.044Z,77.61
2022-10-22T13:47:52.083Z,77.99
2022-10-22T13:50:21.332Z,78.16
2022-10-22T13:52:57.630Z,78.18
2022-10-22T13:55:30.446Z,78.26
2022-10-22T13:58:10.817Z,78.00
2022-10-22T14:00:41.419Z,78.29
2022-10-22T14:03:15.323Z,78.76
2022-10-22T14:05:45.554Z,79.04
2022-10-22T14:08:16.966Z,79.26
2022-10-22T14:10:44.991Z,79.19
2022-10-22T14:13:14.860Z,79.08
2022-10-22T14:15:45.585Z,79.19
2022-10-22T14:18:24.346Z,79.17
2022-10-22T14:20:57.270Z,79.89
2022-10-22T14:23:28.640Z,80.10
2022-10-22T14:25:57.309Z,80.05
2022-10-22T14:28:25.510Z,80.22
2022-10-22T14:30:54.460Z,80.10
2022-10-22T14:33:31.983Z,79.99
2022-10-22T14:36:00.827Z,80.11
2022-10-22T14:38:29.442Z,80.36
2022-10-22T14:40:58.004Z,80.66
2022-10-22T14:43:28.684Z,81.08
2022-10-22T14:45:57.828Z,80.92
2022-10-22T14:48:25.543Z,80.77
2022-10-22T14:50:54.581Z,80.60
2022-10-22T14:53:22.438Z,80.78
2022-10-22T14:55:51.590Z,80.80
2022-10-22T14:58:19.511Z,81.06
2022-10-22T15:00:47.358Z,81.04
2022-10-22T15:03:15.259Z,81.13
2022-10-22T15:05:44.934Z,81.05
2022-10-22T15:08:14.710Z,81.36
2022-10-22T15:10:42.689Z,81.10
2022-10-22T15:13:10.567Z,81.06
2022-10-22T15:15:41.520Z,81.01
2022-10-22T15:18:09.334Z,81.43
2022-10-22T15:20:37.302Z,81.31
2022-10-22T15:23:05.205Z,80.98
2022-10-22T15:25:32.956Z,80.71
2022-10-22T15:28:04.640Z,80.91
2022-10-22T15:30:36.919Z,81.90
2022-10-22T15:33:04.756Z,82.20
2022-10-22T15:35:32.634Z,82.56
2022-10-22T15:38:00.471Z,83.28
2022-10-22T15:40:28.300Z,83.55
2022-10-22T15:42:56.313Z,83.56
2022-10-22T15:45:25.222Z,83.57
2022-10-22T15:47:53.008Z,83.55
2022-10-22T15:50:20.894Z,83.42
2022-10-22T15:52:48.738Z,83.30
2022-10-22T15:55:17.046Z,82.97
2022-10-22T15:57:45.274Z,83.18
2022-10-22T16:00:13.970Z,83.40
2022-10-22T16:02:41.954Z,83.97
2022-10-22T16:05:10.260Z,84.13
2022-10-22T16:07:38.183Z,83.97
2022-10-22T16:10:07.805Z,83.97
2022-10-22T16:12:36.176Z,83.75
2022-10-22T16:15:04.416Z,83.84
2022-10-22T16:17:32.236Z,84.29
2022-10-22T16:20:00.310Z,84.19
2022-10-22T16:22:28.337Z,84.28
2022-10-22T16:24:56.223Z,83.63
2022-10-22T16:27:24.141Z,84.41
2022-10-22T16:29:52.155Z,84.42
2022-10-22T16:32:20.039Z,84.32
2022-10-22T16:34:48.007Z,84.49
2022-10-22T16:37:15.932Z,84.70
2022-10-22T16:39:43.732Z,84.54
2022-10-22T16:42:11.699Z,84.82
2022-10-22T16:44:39.579Z,84.75
2022-10-22T16:47:07.463Z,85.17
2022-10-22T16:49:35.286Z,86.09
2022-10-22T16:52:03.203Z,85.63
2022-10-22T16:54:31.048Z,85.46
2022-10-22T16:56:58.850Z,85.08
2022-10-22T16:59:26.684Z,85.57
2022-10-22T17:01:55.143Z,86.28
2022-10-22T17:04:23.796Z,86.37
2022-10-22T17:06:51.700Z,86.92
2022-10-22T17:09:19.688Z,86.37
2022-10-22T17:11:47.748Z,86.49
2022-10-22T17:14:15.665Z,86.95
2022-10-22T17:16:43.757Z,87.14
2022-10-22T17:19:16.061Z,87.08
2022-10-22T17:21:43.972Z,86.55
2022-10-22T17:24:11.884Z,86.14
2022-10-22T17:26:39.649Z,86.29
2022-10-22T17:29:07.800Z,86.06
2022-10-22T17:31:39.382Z,86.21
2022-10-22T17:34:10.650Z,86.38
2022-10-22T17:36:38.445Z,86.62
2022-10-22T17:39:07.783Z,86.16
2022-10-22T17:41:37.249Z,85.85
2022-10-22T17:44:08.978Z,86.36
2022-10-22T17:46:38.167Z,86.03
2022-10-22T17:49:10.529Z,86.31
2022-10-22T17:51:38.288Z,86.31
2022-10-22T17:54:08.954Z,86.34
2022-10-22T17:56:40.263Z,86.06
2022-10-22T17:59:10.827Z,86.38
2022-10-22T18:01:43.451Z,86.98
2022-10-22T18:04:15.550Z,86.60
2022-10-22T18:06:43.437Z,86.39
2022-10-22T18:09:17.291Z,86.05
2022-10-22T18:11:47.624Z,86.06
2022-10-22T18:14:17.887Z,86.30
2022-10-22T18:16:46.083Z,86.54
2022-10-22T18:19:20.698Z,86.68
2022-10-22T18:21:48.950Z,86.53
2022-10-22T18:24:17.647Z,86.18
2022-10-22T18:26:45.469Z,85.97
2022-10-22T18:29:16.154Z,86.12
2022-10-22T18:31:44.367Z,86.13
2022-10-22T18:34:12.815Z,86.49
2022-10-22T18:36:41.642Z,86.24
2022-10-22T18:39:14.514Z,86.84
2022-10-22T18:41:43.348Z,86.88
2022-10-22T18:44:14.079Z,86.70
2022-10-22T18:46:41.916Z,86.57
2022-10-22T18:49:16.022Z,86.88
2022-10-22T18:51:46.393Z,86.92
2022-10-22T18:54:28.636Z,86.94
2022-10-22T18:57:02.708Z,86.94
2022-10-22T18:59:31.662Z,87.04
2022-10-22T19:01:59.859Z,86.95
2022-10-22T19:04:33.671Z,87.39
2022-10-22T19:07:01.487Z,87.39
2022-10-22T19:09:29.225Z,87.66
2022-10-22T19:11:57.140Z,87.72
2022-10-22T19:14:24.963Z,87.53
2022-10-22T19:16:53.032Z,87.39
2022-10-22T19:19:21.836Z,87.28
2022-10-22T19:21:50.243Z,87.62
2022-10-22T19:24:20.228Z,87.54
2022-10-22T19:26:49.009Z,87.53
2022-10-22T19:29:18.763Z,88.01
2022-10-22T19:31:47.735Z,87.73
2022-10-22T19:34:16.140Z,87.42
2022-10-22T19:36:43.915Z,87.43
2022-10-22T19:39:15.734Z,87.40
2022-10-22T19:41:43.881Z,87.72
2022-10-22T19:44:11.751Z,87.90
2022-10-22T19:46:39.527Z,87.99
2022-10-22T19:49:07.330Z,88.27
2022-10-22T19:51:35.075Z,87.55
2022-10-22T19:54:06.241Z,87.58
2022-10-22T19:56:35.925Z,87.50
2022-10-22T19:59:05.630Z,87.60
2022-10-22T20:01:33.437Z,87.53
2022-10-22T20:04:01.731Z,87.38
2022-10-22T20:06:30.721Z,87.53
2022-10-22T20:08:58.577Z,87.45
2022-10-22T20:11:29.929Z,87.38
2022-10-22T20:13:58.451Z,87.48
2022-10-22T20:16:30.031Z,87.40
2022-10-22T20:19:03.679Z,87.32
2022-10-22T20:21:32.047Z,87.29
2022-10-22T20:24:00.081Z,87.41
2022-10-22T20:26:28.687Z,87.27
2022-10-22T20:28:57.946Z,87.12
2022-10-22T20:31:28.550Z,87.14
2022-10-22T20:34:04.291Z,87.35
2022-10-22T20:36:32.769Z,87.25
2022-10-22T20:39:07.073Z,87.29
2022-10-22T20:41:37.933Z,86.84
2022-10-22T20:44:06.144Z,86.79
2022-10-22T20:46:34.890Z,86.50
2022-10-22T20:49:05.990Z,86.61
2022-10-22T20:51:35.493Z,86.71
2022-10-22T20:54:04.265Z,86.81
2022-10-22T20:56:32.383Z,86.86
2022-10-22T20:59:04.912Z,87.25
2022-10-22T21:01:38.613Z,87.32
2022-10-22T21:04:07.482Z,87.21
2022-10-22T21:06:38.283Z,87.38
2022-10-22T21:09:10.636Z,87.14
2022-10-22T21:11:40.497Z,87.12
2022-10-22T21:14:10.787Z,86.97
2022-10-22T21:16:46.180Z,86.88
2022-10-22T21:19:13.801Z,86.95
2022-10-22T21:21:41.601Z,86.84
2022-10-22T21:24:09.681Z,86.90
2022-10-22T21:26:39.108Z,86.75
2022-10-22T21:29:07.262Z,86.63
2022-10-22T21:31:35.393Z,86.88
2022-10-22T21:34:03.072Z,86.51
2022-10-22T21:36:30.923Z,86.88
2022-10-22T21:38:58.603Z,86.64
2022-10-22T21:41:26.228Z,86.49
2022-10-22T21:43:53.960Z,86.66
2022-10-22T21:46:24.445Z,86.42
2022-10-22T21:49:02.193Z,86.38
2022-10-22T21:51:33.111Z,86.19
2022-10-22T21:54:00.969Z,86.29
2022-10-22T21:56:32.811Z,86.42
2022-10-22T21:59:02.043Z,86.48
2022-10-22T22:01:30.376Z,86.80
2022-10-22T22:03:58.540Z,86.58
2022-10-22T22:06:30.734Z,86.41
2022-10-22T22:09:00.039Z,86.24
2022-10-22T22:11:28.833Z,86.04
2022-10-22T22:13:58.165Z,85.87
2022-10-22T22:16:29.529Z,86.10
2022-10-22T22:19:00.227Z,86.25
2022-10-22T22:21:28.768Z,86.40
2022-10-22T22:23:57.857Z,86.50
2022-10-22T22:26:29.620Z,86.69
2022-10-22T22:28:59.439Z,86.53
2022-10-22T22:31:29.848Z,86.35
2022-10-22T22:34:07.460Z,86.25
2022-10-22T22:36:37.883Z,86.09
2022-10-22T22:39:07.694Z,86.01
2022-10-22T22:41:35.423Z,86.02
2022-10-22T22:44:03.198Z,86.00
2022-10-22T22:46:31.333Z,86.13
2022-10-22T22:48:59.044Z,86.18
2022-10-22T22:51:26.864Z,86.23
2022-10-22T22:53:54.797Z,86.12
2022-10-22T22:56:25.170Z,86.19
2022-10-22T22:58:52.919Z,86.17
2022-10-22T23:01:36.229Z,86.44
2022-10-22T23:04:06.941Z,86.29
2022-10-22T23:06:37.216Z,86.18
2022-10-22T23:09:06.900Z,86.09
2022-10-22T23:11:35.137Z,86.37
2022-10-22T23:14:05.509Z,86.65
2022-10-22T23:16:34.929Z,86.63
2022-10-22T23:19:04.228Z,86.78
2022-10-22T23:21:35.019Z,86.77
2022-10-22T23:24:06.123Z,86.81
2022-10-22T23:26:37.145Z,86.55
2022-10-22T23:29:08.280Z,86.80
2022-10-22T23:31:35.984Z,86.77
2022-10-22T23:34:04.056Z,86.82
2022-10-22T23:36:31.820Z,86.71
2022-10-22T23:38:59.539Z,86.77
2022-10-22T23:41:27.348Z,86.75
2022-10-22T23:43:55.024Z,86.89
2022-10-22T23:46:22.811Z,86.77
2022-10-22T23:48:50.548Z,86.84
2022-10-22T23:51:18.318Z,86.95
2022-10-22T23:53:47.581Z,86.81
2022-10-22T23:56:18.015Z,86.73
2022-10-22T23:58:45.800Z,86.83
